Time;durP1;ratioP1;P1;durP2;ratioP2;P2;SDS_P1;SDS_P2;PMS_P1;PMS_P2;Temp;Humidity;BMP_temperature;BMP_pressure;BME280_temperature;BME280_humidity;BME280_pressure;Samples;Min_cycle;Max_cycle;Signal;HPM_P1;HPM_P2
2021/01/21 00:02:23;;;;;;;9.63;6.28;;;;;;;6.77;62.44;100304.06;5057724;28;20456;-63
2021/01/21 00:04:48;;;;;;;15.05;6.53;;;;;;;6.74;62.30;100296.44;5057430;28;20048;-63
2021/01/21 00:07:14;;;;;;;13.02;6.43;;;;;;;6.71;62.12;100295.19;5057422;28;20452;-63
2021/01/21 00:09:39;;;;;;;12.13;6.25;;;;;;;6.78;62.38;100288.91;5057525;28;20033;-63
2021/01/21 00:12:05;;;;;;;11.15;6.45;;;;;;;6.77;62.38;100290.09;5057459;28;20048;-63
2021/01/21 00:14:31;;;;;;;12.25;7.15;;;;;;;6.74;62.16;100285.25;5057365;28;20025;-63
2021/01/21 00:16:56;;;;;;;10.20;6.50;;;;;;;6.71;62.30;100297.19;5057114;28;20013;-63
2021/01/21 00:19:21;;;;;;;11.18;6.20;;;;;;;6.69;62.65;100289.19;5057505;28;20063;-63
2021/01/21 00:21:47;;;;;;;11.27;6.38;;;;;;;6.67;62.21;100287.97;5056850;28;20364;-61
2021/01/21 00:24:12;;;;;;;13.27;7.28;;;;;;;6.65;62.37;100296.72;5057214;28;20021;-62
2021/01/21 00:26:37;;;;;;;10.75;6.43;;;;;;;6.62;62.68;100293.88;5057199;28;20028;-61
2021/01/21 00:29:03;;;;;;;11.68;6.32;;;;;;;6.51;62.71;100291.75;5057257;28;20415;-61
2021/01/21 00:31:28;;;;;;;11.73;6.22;;;;;;;6.55;62.96;100285.38;5046647;28;20108;-64
2021/01/21 00:33:54;;;;;;;12.43;7.20;;;;;;;6.57;62.40;100288.59;5056769;28;20021;-61
2021/01/21 00:36:19;;;;;;;12.90;7.10;;;;;;;6.57;62.92;100286.63;5055774;28;20379;-61
2021/01/21 00:38:44;;;;;;;12.32;7.03;;;;;;;6.54;62.87;100287.38;5056803;28;20102;-61
2021/01/21 00:41:10;;;;;;;13.07;7.50;;;;;;;6.56;62.94;100287.00;5050678;28;20021;-63
2021/01/21 00:43:35;;;;;;;15.23;8.15;;;;;;;6.57;62.43;100285.81;5056834;28;20045;-62
2021/01/21 00:46:00;;;;;;;16.45;9.05;;;;;;;6.59;62.53;100283.47;5055459;28;20040;-60
2021/01/21 00:48:27;;;;;;;14.40;8.20;;;;;;;6.57;62.47;100286.63;5056570;28;20052;-61
2021/01/21 00:50:52;;;;;;;17.02;10.77;;;;;;;6.53;62.56;100293.34;5056399;28;20044;-62
2021/01/21 00:53:18;;;;;;;15.77;9.75;;;;;;;6.50;63.30;100286.53;5056766;28;20029;-61
2021/01/21 00:55:43;;;;;;;14.60;9.85;;;;;;;6.49;63.37;100284.94;5056552;28;20094;-62
2021/01/21 00:58:09;;;;;;;11.35;7.05;;;;;;;6.47;62.72;100279.72;5056588;28;20032;-61
2021/01/21 01:00:35;;;;;;;9.77;6.93;;;;;;;6.48;63.02;100281.31;5056718;28;20025;-62
2021/01/21 01:03:02;;;;;;;11.75;6.65;;;;;;;6.45;62.84;100281.28;5054142;28;20392;-61
2021/01/21 01:05:28;;;;;;;14.23;6.65;;;;;;;6.37;63.40;100277.59;5044865;28;20098;-62
2021/01/21 01:07:53;;;;;;;12.30;7.07;;;;;;;6.35;63.28;100274.38;5056248;28;20064;-64
2021/01/21 01:10:18;;;;;;;12.27;7.25;;;;;;;6.34;63.25;100283.94;5056404;28;20056;-60
2021/01/21 01:12:44;;;;;;;10.70;6.35;;;;;;;6.30;63.30;100277.50;5056379;28;20033;-62
2021/01/21 01:15:10;;;;;;;12.98;6.65;;;;;;;6.26;63.40;100281.41;5056173;28;20070;-62
2021/01/21 01:17:35;;;;;;;13.40;6.32;;;;;;;6.26;63.48;100284.19;5056201;28;20024;-62
2021/01/21 01:20:01;;;;;;;14.95;7.20;;;;;;;6.29;63.57;100275.84;5055760;28;20035;-61
2021/01/21 01:22:26;;;;;;;13.30;6.82;;;;;;;6.24;63.30;100273.41;5056236;28;20027;-62
2021/01/21 01:24:52;;;;;;;11.07;6.68;;;;;;;6.18;63.58;100264.56;5049046;28;20053;-62
2021/01/21 01:27:17;;;;;;;13.10;6.68;;;;;;;6.20;63.57;100261.38;5054148;28;20017;-61
2021/01/21 01:29:45;;;;;;;12.40;6.95;;;;;;;6.16;64.22;100249.38;5055921;28;20025;-61
2021/01/21 01:32:11;;;;;;;11.30;7.03;;;;;;;6.11;63.61;100247.72;5055953;28;20029;-61
2021/01/21 01:34:37;;;;;;;13.57;6.78;;;;;;;6.08;63.78;100248.47;5055523;28;20071;-64
2021/01/21 01:37:03;;;;;;;9.88;6.38;;;;;;;5.98;63.98;100240.72;5055800;28;20029;-62
2021/01/21 01:39:28;;;;;;;11.00;6.32;;;;;;;5.95;64.68;100241.47;5048175;28;20028;-62
2021/01/21 01:41:53;;;;;;;10.20;6.63;;;;;;;6.01;64.23;100245.53;5055707;28;20045;-61
2021/01/21 01:44:19;;;;;;;14.10;7.95;;;;;;;5.92;64.20;100235.84;5055733;28;20056;-64
2021/01/21 01:46:44;;;;;;;9.85;6.32;;;;;;;5.99;64.34;100239.53;5055715;28;20315;-62
2021/01/21 01:49:10;;;;;;;9.82;6.45;;;;;;;6.00;64.32;100235.56;5055564;28;20728;-64
2021/01/21 01:51:38;;;;;;;11.75;6.68;;;;;;;5.99;64.17;100228.38;5055679;28;20069;-60
2021/01/21 01:54:04;;;;;;;9.65;5.65;;;;;;;6.01;63.97;100236.38;5055486;28;20021;-62
2021/01/21 01:56:30;;;;;;;10.85;5.90;;;;;;;6.01;64.24;100237.16;5056086;28;20031;-62
2021/01/21 01:58:57;;;;;;;10.30;6.10;;;;;;;5.97;64.18;100236.31;5054281;28;20029;-62
2021/01/21 02:01:23;;;;;;;12.75;6.35;;;;;;;5.97;64.08;100225.16;5055533;28;20095;-61
2021/01/21 02:03:49;;;;;;;10.57;6.22;;;;;;;6.01;64.29;100226.00;5055519;28;20033;-62
2021/01/21 02:06:14;;;;;;;11.65;5.95;;;;;;;5.99;64.15;100216.41;5055276;28;20021;-61
2021/01/21 02:08:40;;;;;;;9.95;5.68;;;;;;;5.99;64.12;100227.56;5055609;28;20116;-62
2021/01/21 02:11:20;;;;;;;10.05;5.60;;;;;;;5.98;64.13;100225.97;5055627;28;20056;-62
2021/01/21 02:13:59;;;;;;;10.63;5.93;;;;;;;5.92;64.64;100216.31;5055380;28;20028;-63
2021/01/21 02:16:40;;;;;;;13.55;6.60;;;;;;;5.87;64.09;100212.63;5054886;28;20094;-61
2021/01/21 02:19:47;;;;;;;11.10;5.88;;;;;;;5.86;64.29;100208.25;5055418;28;20076;-63
2021/01/21 02:22:31;;;;;;;10.88;6.45;;;;;;;5.76;64.86;100210.88;5055498;28;20289;-62
2021/01/21 02:25:16;;;;;;;13.27;6.32;;;;;;;5.71;64.82;100206.41;5053983;28;20045;-61
2021/01/21 02:28:13;;;;;;;11.32;6.68;;;;;;;5.74;64.98;100205.63;5055397;28;20056;-62
2021/01/21 02:30:53;;;;;;;11.90;6.90;;;;;;;5.70;65.11;100204.78;5055378;28;20032;-62
2021/01/21 02:33:37;;;;;;;12.75;6.75;;;;;;;5.64;64.90;100197.94;5054910;28;20033;-63
2021/01/21 02:36:06;;;;;;;11.63;6.10;;;;;;;5.63;65.14;100207.47;5054181;28;20396;-63
2021/01/21 02:38:35;;;;;;;12.13;6.40;;;;;;;5.61;65.35;100204.25;5055186;28;20068;-63
2021/01/21 02:41:00;;;;;;;9.23;6.13;;;;;;;5.59;65.22;100203.81;5055011;28;20028;-62
2021/01/21 02:43:25;;;;;;;13.75;6.97;;;;;;;5.60;65.53;100191.50;5054976;28;20731;-62
2021/01/21 02:45:51;;;;;;;14.20;6.78;;;;;;;5.57;65.43;100192.25;5054768;28;20075;-62
2021/01/21 02:48:16;;;;;;;12.20;6.57;;;;;;;5.60;65.49;100191.50;5055082;28;20021;-62
2021/01/21 02:50:42;;;;;;;14.88;6.85;;;;;;;5.59;65.55;100193.47;5054939;28;20059;-62
2021/01/21 02:53:08;;;;;;;11.80;6.72;;;;;;;5.64;65.45;100181.19;5055071;28;20079;-63
2021/01/21 02:55:46;;;;;;;10.90;5.97;;;;;;;5.60;65.50;100202.63;5054792;28;20465;-63
2021/01/21 02:58:16;;;;;;;11.05;6.90;;;;;;;5.56;65.49;100199.00;5055167;28;20060;-61
2021/01/21 03:00:44;;;;;;;11.48;7.05;;;;;;;5.48;65.38;100200.06;5054653;28;20024;-62
2021/01/21 03:03:20;;;;;;;14.27;7.03;;;;;;;5.46;65.81;100205.19;5054806;28;20060;-62
2021/01/21 03:05:51;;;;;;;10.48;6.32;;;;;;;5.47;66.00;100193.66;5054758;28;20390;-61
2021/01/21 03:08:16;;;;;;;10.95;6.15;;;;;;;5.45;65.95;100192.41;5054959;28;20443;-63
2021/01/21 03:10:42;;;;;;;11.95;6.85;;;;;;;5.44;65.74;100196.38;5057212;28;20033;-62
2021/01/21 03:13:07;;;;;;;11.43;6.20;;;;;;;5.42;66.18;100202.34;5058648;28;20350;-62
2021/01/21 03:15:33;;;;;;;13.82;6.40;;;;;;;5.43;66.21;100205.94;5058330;28;20047;-63
2021/01/21 03:17:58;;;;;;;12.75;6.30;;;;;;;5.45;65.86;100203.56;5058497;28;20017;-62
2021/01/21 03:20:23;;;;;;;10.27;6.18;;;;;;;5.39;65.58;100202.28;5058637;28;20036;-62
2021/01/21 03:22:48;;;;;;;10.30;6.43;;;;;;;5.35;66.22;100190.28;5058366;28;20029;-63
2021/01/21 03:25:14;;;;;;;8.88;5.78;;;;;;;5.31;66.26;100192.19;5058272;28;20029;-63
2021/01/21 03:27:39;;;;;;;10.57;6.13;;;;;;;5.34;66.22;100185.88;5058349;28;20028;-62
2021/01/21 03:30:06;;;;;;;12.02;6.28;;;;;;;5.35;65.93;100190.28;5058111;28;20029;-62
2021/01/21 03:32:32;;;;;;;10.45;6.15;;;;;;;5.35;66.20;100190.28;5058152;28;20035;-63
2021/01/21 03:34:58;;;;;;;8.40;5.50;;;;;;;5.33;65.95;100195.41;5056998;28;20079;-63
2021/01/21 03:37:23;;;;;;;10.05;5.75;;;;;;;5.26;66.04;100191.34;5058320;28;20029;-63
2021/01/21 03:39:49;;;;;;;11.95;6.35;;;;;;;5.25;66.49;100200.06;5058019;28;20029;-63
2021/01/21 03:42:14;;;;;;;7.72;5.53;;;;;;;5.23;66.56;100197.66;5058428;28;20074;-63
2021/01/21 03:44:39;;;;;;;11.18;5.88;;;;;;;5.24;66.52;100201.25;5057850;28;20049;-63
2021/01/21 03:47:05;;;;;;;11.48;5.95;;;;;;;5.26;66.27;100196.91;5057573;28;20435;-63
2021/01/21 03:49:30;;;;;;;11.27;5.90;;;;;;;5.23;66.52;100197.66;5057247;28;20040;-63
2021/01/21 03:51:55;;;;;;;15.18;8.13;;;;;;;5.26;66.53;100201.69;5057844;28;20051;-64
2021/01/21 03:54:21;;;;;;;12.27;7.22;;;;;;;5.24;66.28;100204.03;5057994;28;20277;-63
2021/01/21 03:56:46;;;;;;;13.20;6.63;;;;;;;5.21;66.41;100194.44;5057776;28;20083;-62
2021/01/21 03:59:11;;;;;;;11.50;6.32;;;;;;;5.24;66.76;100198.47;5057466;28;20389;-61
2021/01/21 04:01:37;;;;;;;11.25;6.22;;;;;;;5.20;66.58;100201.19;5056676;28;20035;-62
2021/01/21 04:04:02;;;;;;;9.32;5.88;;;;;;;5.23;66.58;100194.88;5056271;28;20041;-61
2021/01/21 04:06:27;;;;;;;10.85;5.78;;;;;;;5.19;66.33;100193.97;5057784;28;20066;-61
2021/01/21 04:08:53;;;;;;;7.80;4.80;;;;;;;5.21;66.56;100180.50;5057457;28;20055;-62
2021/01/21 04:11:18;;;;;;;11.77;5.43;;;;;;;5.28;66.46;100183.41;5057539;28;20017;-61
2021/01/21 04:13:43;;;;;;;9.30;5.47;;;;;;;5.29;66.34;100178.63;5057331;28;20408;-62
2021/01/21 04:16:09;;;;;;;7.32;5.05;;;;;;;5.34;66.17;100183.91;5057101;28;20097;-61
2021/01/21 04:18:34;;;;;;;8.40;5.18;;;;;;;5.30;66.58;100187.81;5057554;28;20378;-62
2021/01/21 04:20:59;;;;;;;7.63;4.75;;;;;;;5.35;66.41;100193.06;5056435;28;20031;-63
2021/01/21 04:23:25;;;;;;;9.88;4.80;;;;;;;5.34;66.29;100191.44;5057269;28;20156;-63
2021/01/21 04:25:50;;;;;;;7.75;5.03;;;;;;;5.38;66.25;100197.88;5057135;28;20359;-62
2021/01/21 04:28:16;;;;;;;10.10;5.30;;;;;;;5.37;66.12;100191.50;5057042;28;20404;-62
2021/01/21 04:30:41;;;;;;;9.52;5.13;;;;;;;5.36;65.72;100197.44;5057183;28;20036;-62
2021/01/21 04:33:07;;;;;;;10.43;5.60;;;;;;;5.39;66.18;100191.13;5057005;28;20021;-62
2021/01/21 04:35:32;;;;;;;6.95;4.75;;;;;;;5.37;66.21;100193.50;5057350;28;20363;-63
2021/01/21 04:37:58;;;;;;;16.73;5.38;;;;;;;5.40;65.91;100196.34;5057178;28;20028;-63
2021/01/21 04:40:25;;;;;;;11.60;5.60;;;;;;;5.30;66.29;100190.59;5054746;28;20424;-62
2021/01/21 04:42:51;;;;;;;10.07;4.88;;;;;;;5.27;66.65;100195.72;5054727;28;20048;-63
2021/01/21 04:45:16;;;;;;;9.30;5.20;;;;;;;5.32;66.06;100199.38;5056518;28;20088;-63
2021/01/21 04:47:42;;;;;;;9.57;5.50;;;;;;;5.26;66.60;100196.09;5055250;28;20073;-63
2021/01/21 04:50:09;;;;;;;12.52;6.15;;;;;;;5.31;66.54;100195.00;5056741;28;20032;-60
2021/01/21 04:52:38;;;;;;;7.05;4.38;;;;;;;5.30;66.62;100198.94;5044391;28;20021;-61
2021/01/21 04:55:11;;;;;;;9.77;4.90;;;;;;;5.28;66.79;100200.13;5047784;28;20033;-66
2021/01/21 04:57:43;;;;;;;10.48;5.47;;;;;;;5.22;66.46;100189.66;5051879;28;20355;-61
2021/01/21 05:00:09;;;;;;;8.65;5.45;;;;;;;5.26;66.60;100205.28;5056675;28;20028;-61
2021/01/21 05:02:38;;;;;;;8.60;5.20;;;;;;;5.20;66.65;100201.19;5056346;28;20025;-58
2021/01/21 05:05:08;;;;;;;9.80;5.82;;;;;;;5.16;66.74;100208.66;5056483;28;20021;-61
2021/01/21 05:07:33;;;;;;;13.05;5.70;;;;;;;5.15;67.36;100206.25;5035351;28;20120;-62
2021/01/21 05:10:00;;;;;;;14.23;7.57;;;;;;;5.14;66.94;100211.00;5055741;28;20100;-63
2021/01/21 05:12:25;;;;;;;26.33;12.57;;;;;;;5.15;66.97;100209.03;5055830;28;20310;-61
2021/01/21 05:14:50;;;;;;;11.80;8.88;;;;;;;5.11;66.66;100203.38;5047705;28;20025;-59
2021/01/21 05:17:16;;;;;;;22.25;13.93;;;;;;;5.08;67.07;100209.72;5039881;28;20022;-61
2021/01/21 05:19:45;;;;;;;16.42;9.57;;;;;;;5.04;67.21;100211.63;5056006;28;20317;-61
2021/01/21 05:22:11;;;;;;;15.40;7.30;;;;;;;4.98;67.29;100213.13;5052604;28;20083;-61
2021/01/21 05:24:37;;;;;;;17.73;10.27;;;;;;;4.91;67.21;100212.94;5044489;28;20022;-61
2021/01/21 05:27:02;;;;;;;13.77;8.73;;;;;;;4.86;67.61;100216.03;5046632;28;20359;-63
2021/01/21 05:29:29;;;;;;;12.40;8.50;;;;;;;4.85;68.19;100209.66;5054558;28;20032;-62
2021/01/21 05:31:55;;;;;;;14.88;8.32;;;;;;;4.75;68.10;100209.47;5054682;28;20081;-58
2021/01/21 05:34:20;;;;;;;19.20;8.85;;;;;;;4.71;68.10;100214.16;5043966;28;20103;-61
2021/01/21 05:36:46;;;;;;;15.15;7.85;;;;;;;4.68;68.88;100226.03;5042869;28;20112;-61
2021/01/21 05:39:11;;;;;;;15.43;9.35;;;;;;;4.64;69.10;100214.81;5047869;28;20037;-64
2021/01/21 05:41:38;;;;;;;20.67;11.18;;;;;;;4.71;68.22;100211.38;5046893;28;20033;-62
2021/01/21 05:44:05;;;;;;;24.75;12.13;;;;;;;4.74;68.36;100213.44;5043156;28;20053;-61
2021/01/21 05:46:33;;;;;;;19.45;10.68;;;;;;;4.73;68.58;100211.81;5046152;28;20032;-60
2021/01/21 05:48:59;;;;;;;24.75;13.77;;;;;;;4.70;68.40;100215.34;5049638;28;20021;-61
2021/01/21 05:51:25;;;;;;;30.40;14.05;;;;;;;4.70;68.60;100209.78;5047268;28;20033;-61
2021/01/21 05:53:54;;;;;;;18.25;10.65;;;;;;;4.75;68.61;100207.50;5050845;28;20023;-60
2021/01/21 05:56:21;;;;;;;21.85;9.65;;;;;;;4.70;68.40;100204.22;5051469;28;20023;-59
2021/01/21 05:58:49;;;;;;;19.15;9.30;;;;;;;4.62;69.10;100194.88;5054478;28;20096;-64
2021/01/21 06:01:15;;;;;;;16.83;10.40;;;;;;;4.58;69.04;100203.16;5055573;28;20482;-62
2021/01/21 06:03:40;;;;;;;22.70;11.52;;;;;;;4.51;69.29;100189.13;5054825;28;20044;-60
2021/01/21 06:06:06;;;;;;;21.70;11.30;;;;;;;4.48;69.68;100195.41;5054713;28;20320;-64
2021/01/21 06:08:38;;;;;;;34.38;15.52;;;;;;;4.48;69.56;100201.00;5055198;28;20037;-63
2021/01/21 06:11:05;;;;;;;30.55;14.48;;;;;;;4.51;69.10;100199.44;5055263;28;20432;-63
2021/01/21 06:13:34;;;;;;;24.10;13.52;;;;;;;4.42;69.76;100199.69;5055148;28;20033;-63
2021/01/21 06:16:00;;;;;;;17.75;10.85;;;;;;;4.41;69.41;100195.28;5055118;28;20385;-64
2021/01/21 06:18:25;;;;;;;19.75;10.73;;;;;;;4.38;69.91;100195.19;5055407;28;20476;-63
2021/01/21 06:20:51;;;;;;;14.32;8.35;;;;;;;4.35;69.78;100189.19;5047433;28;20109;-63
2021/01/21 06:23:20;;;;;;;12.35;6.90;;;;;;;4.43;70.14;100186.56;5055213;28;20385;-63
2021/01/21 06:25:47;;;;;;;15.52;7.55;;;;;;;4.48;69.77;100194.63;5055095;28;20021;-62
2021/01/21 06:28:14;;;;;;;14.23;8.95;;;;;;;4.47;70.10;100201.34;5055111;28;20056;-60
2021/01/21 06:30:40;;;;;;;16.48;9.60;;;;;;;4.48;69.89;100203.78;5055119;28;20025;-64
2021/01/21 06:33:06;;;;;;;17.23;9.75;;;;;;;4.54;69.52;100199.50;5054887;28;20047;-62
2021/01/21 06:35:33;;;;;;;18.98;9.98;;;;;;;4.57;69.63;100198.78;5055192;28;20087;-62
2021/01/21 06:38:05;;;;;;;17.83;9.73;;;;;;;4.57;69.58;100196.00;5055035;28;20029;-65
2021/01/21 06:40:33;;;;;;;17.45;9.77;;;;;;;4.54;69.40;100193.94;5055211;28;20021;-59
2021/01/21 06:43:05;;;;;;;19.45;9.77;;;;;;;4.53;70.03;100188.75;5054858;28;20036;-61
2021/01/21 06:45:33;;;;;;;22.45;9.45;;;;;;;4.55;69.78;100189.19;5057048;28;20029;-60
2021/01/21 06:47:59;;;;;;;16.98;9.85;;;;;;;4.54;69.68;100187.56;5059212;28;20383;-61
2021/01/21 06:50:29;;;;;;;14.13;8.50;;;;;;;4.61;69.42;100199.66;5058938;28;20027;-62
2021/01/21 06:52:58;;;;;;;16.92;9.13;;;;;;;4.64;69.76;100198.09;5059052;28;20109;-62
2021/01/21 06:55:24;;;;;;;15.30;8.85;;;;;;;4.75;69.56;100195.56;5059270;28;20039;-63
2021/01/21 06:57:50;;;;;;;15.45;8.60;;;;;;;4.77;69.02;100196.00;5058938;28;20025;-63
2021/01/21 07:00:17;;;;;;;16.75;10.23;;;;;;;4.81;69.08;100203.22;5058623;28;20036;-63
2021/01/21 07:02:50;;;;;;;17.90;8.70;;;;;;;4.85;69.33;100192.16;5058965;28;20104;-63
2021/01/21 07:05:20;;;;;;;24.88;13.30;;;;;;;4.83;69.10;100200.06;5058597;28;20036;-63
2021/01/21 07:08:01;;;;;;;20.95;12.07;;;;;;;4.83;69.20;100202.84;5057472;28;20328;-63
2021/01/21 07:10:44;;;;;;;20.05;9.65;;;;;;;4.88;69.30;100219.25;5058921;28;20068;-61
2021/01/21 07:13:20;;;;;;;16.52;9.50;;;;;;;4.97;68.91;100208.72;5045929;28;20029;-63
2021/01/21 07:15:49;;;;;;;17.23;9.48;;;;;;;5.14;68.69;100205.44;5058611;28;20028;-63
2021/01/21 07:18:16;;;;;;;22.90;9.77;;;;;;;5.35;67.82;100218.94;5057541;28;20059;-63
2021/01/21 07:21:07;;;;;;;17.35;10.23;;;;;;;5.42;67.55;100205.13;5058590;28;20025;-59
2021/01/21 07:23:56;;;;;;;18.60;10.27;;;;;;;5.50;67.51;100198.50;5058647;28;20027;-63
2021/01/21 07:26:32;;;;;;;20.95;10.77;;;;;;;5.55;66.86;100206.56;5058247;28;20025;-64
2021/01/21 07:29:19;;;;;;;22.13;10.80;;;;;;;5.60;66.98;100216.59;5058624;28;20068;-61
2021/01/21 07:31:53;;;;;;;21.45;11.18;;;;;;;5.63;66.90;100199.09;5044731;28;20028;-60
2021/01/21 07:34:39;;;;;;;25.00;12.57;;;;;;;5.70;66.65;100202.00;5058337;28;20351;-60
2021/01/21 07:37:17;;;;;;;21.70;11.38;;;;;;;5.83;66.27;100197.03;5057926;28;20017;-64
2021/01/21 07:39:54;;;;;;;23.60;11.20;;;;;;;5.96;65.84;100203.22;5058174;28;20420;-60
2021/01/21 07:42:21;;;;;;;19.42;9.82;;;;;;;6.09;65.96;100204.63;5043897;28;20041;-61
2021/01/21 07:44:58;;;;;;;18.80;9.57;;;;;;;6.24;65.34;100191.66;5057802;28;20397;-62
2021/01/21 07:47:34;;;;;;;20.38;11.90;;;;;;;6.40;65.15;100190.28;5058208;28;20020;-61
2021/01/21 07:50:29;;;;;;;20.30;10.80;;;;;;;6.59;64.40;100185.75;5058104;28;20025;-61
2021/01/21 07:52:59;;;;;;;17.58;9.55;;;;;;;6.74;63.87;100191.09;5047822;28;20078;-58
2021/01/21 07:55:30;;;;;;;15.60;9.70;;;;;;;6.96;64.43;100180.97;5057832;28;20017;-60
2021/01/21 07:58:28;;;;;;;17.85;8.85;;;;;;;7.18;63.03;100181.19;5056912;28;20029;-60
2021/01/21 08:00:58;;;;;;;16.65;8.63;;;;;;;7.28;62.67;100188.84;5057350;28;20040;-61
2021/01/21 08:03:28;;;;;;;13.57;7.88;;;;;;;7.31;62.67;100174.91;5057904;28;20411;-61
2021/01/21 08:06:15;;;;;;;13.25;8.02;;;;;;;7.41;62.62;100177.00;5057154;28;20064;-60
2021/01/21 08:08:51;;;;;;;13.30;7.22;;;;;;;7.51;62.41;100174.66;5057828;28;20028;-64
2021/01/21 08:11:19;;;;;;;14.32;6.65;;;;;;;7.60;62.06;100172.34;5057538;28;20055;-61
2021/01/21 08:13:47;;;;;;;12.90;7.82;;;;;;;7.67;61.97;100186.38;5057843;28;20055;-60
2021/01/21 08:16:17;;;;;;;10.55;7.13;;;;;;;7.71;61.43;100170.44;5057450;28;20055;-60
2021/01/21 08:18:43;;;;;;;13.85;7.85;;;;;;;7.78;62.26;100180.88;5057418;28;20494;-61
2021/01/21 08:21:22;;;;;;;16.45;7.38;;;;;;;7.91;61.99;100174.56;5057110;28;20097;-61
2021/01/21 08:23:56;;;;;;;14.30;8.13;;;;;;;8.11;61.05;100180.69;5057797;28;20056;-61
2021/01/21 08:26:22;;;;;;;20.38;6.82;;;;;;;8.17;61.13;100181.09;5057256;28;20417;-61
2021/01/21 08:28:48;;;;;;;11.98;6.10;;;;;;;8.32;61.40;100177.19;5057396;28;20033;-61
2021/01/21 08:31:14;;;;;;;10.75;5.75;;;;;;;8.45;61.65;100178.47;5056877;28;20032;-63
2021/01/21 08:33:41;;;;;;;10.93;6.40;;;;;;;8.61;60.91;100172.56;5056843;28;20454;-61
2021/01/21 08:36:08;;;;;;;9.98;5.15;;;;;;;8.70;59.87;100177.78;5057172;28;20423;-62
2021/01/21 08:38:39;;;;;;;11.52;7.63;;;;;;;8.80;60.54;100163.81;5057099;28;20039;-62
2021/01/21 08:41:05;;;;;;;6.88;4.85;;;;;;;8.98;58.88;100169.44;5057380;28;20033;-63
2021/01/21 08:43:32;;;;;;;8.45;4.63;;;;;;;9.07;59.58;100167.09;5056721;28;20399;-63
2021/01/21 08:45:58;;;;;;;11.57;4.95;;;;;;;9.18;58.45;100178.31;5056760;28;20096;-61
2021/01/21 08:48:34;;;;;;;18.60;10.02;;;;;;;9.27;58.76;100154.25;5056528;28;20104;-62
2021/01/21 08:51:00;;;;;;;12.95;6.57;;;;;;;9.44;58.56;100158.28;5055822;28;20021;-64
2021/01/21 08:53:28;;;;;;;6.93;3.95;;;;;;;9.62;57.62;100157.50;5056722;28;20027;-63
2021/01/21 08:55:56;;;;;;;14.18;6.60;;;;;;;9.68;58.08;100165.09;5056740;28;20017;-62
2021/01/21 08:58:29;;;;;;;9.55;5.40;;;;;;;9.78;57.84;100160.66;5057030;28;20070;-61
2021/01/21 09:01:02;;;;;;;7.20;4.28;;;;;;;9.91;57.67;100168.28;5056136;28;20074;-61
2021/01/21 09:03:31;;;;;;;7.55;4.35;;;;;;;10.10;57.81;100161.41;5056540;28;20424;-61
2021/01/21 09:05:57;;;;;;;9.00;4.30;;;;;;;10.30;56.91;100161.78;5056272;28;20020;-62
2021/01/21 09:08:22;;;;;;;10.35;4.25;;;;;;;10.41;55.90;100153.34;5055049;28;20377;-60
2021/01/21 09:10:47;;;;;;;7.45;4.30;;;;;;;10.53;56.03;100169.72;5056451;28;20091;-64
2021/01/21 09:13:19;;;;;;;9.25;4.20;;;;;;;10.65;56.07;100168.47;5056359;28;20321;-59
2021/01/21 09:15:52;;;;;;;;;;;;;;;10.75;55.68;100157.19;5056418;28;20017;-63
2021/01/21 09:18:19;;;;;;;11.60;4.80;;;;;;;10.83;55.09;100153.13;5055009;28;20007;-63
2021/01/21 09:20:44;;;;;;;7.57;3.90;;;;;;;10.98;54.92;100153.84;5056161;28;20055;-61
2021/01/21 09:23:19;;;;;;;9.27;3.90;;;;;;;11.02;54.23;100146.19;5056128;28;20025;-62
2021/01/21 09:25:44;;;;;;;8.65;4.70;;;;;;;10.97;54.39;100151.44;5056476;28;20029;-61
2021/01/21 09:28:13;;;;;;;5.93;3.50;;;;;;;11.07;55.16;100145.75;5055844;28;20035;-61
2021/01/21 09:30:40;;;;;;;9.27;4.65;;;;;;;11.15;54.53;100147.28;5056155;28;20086;-60
2021/01/21 09:33:05;;;;;;;11.63;3.83;;;;;;;11.29;54.39;100137.97;5055788;28;20048;-61
2021/01/21 09:35:31;;;;;;;10.90;4.15;;;;;;;11.42;54.23;100146.69;5055996;28;20016;-61
2021/01/21 09:37:59;;;;;;;9.27;3.85;;;;;;;11.42;53.60;100136.22;5055947;28;20033;-62
2021/01/21 09:40:29;;;;;;;6.18;4.00;;;;;;;11.37;53.35;100131.06;5055826;28;20028;-61
2021/01/21 09:42:57;;;;;;;9.43;3.95;;;;;;;11.36;53.93;100128.66;5055584;28;20490;-61
2021/01/21 09:45:24;;;;;;;8.27;4.22;;;;;;;11.51;53.52;100124.50;5055615;28;20024;-65
2021/01/21 09:47:50;;;;;;;12.50;4.35;;;;;;;11.57;53.72;100119.22;5055996;28;20111;-62
2021/01/21 09:50:17;;;;;;;8.57;3.75;;;;;;;11.63;53.75;100117.56;5055701;28;20028;-60
2021/01/21 09:52:42;;;;;;;15.20;4.10;;;;;;;11.60;53.69;100121.22;5055844;28;20086;-61
2021/01/21 09:55:08;;;;;;;7.95;4.03;;;;;;;11.64;53.92;100121.97;5055655;28;20029;-61
2021/01/21 09:57:34;;;;;;;8.70;3.78;;;;;;;11.70;53.81;100123.13;5055514;28;20049;-61
2021/01/21 09:59:59;;;;;;;8.57;4.00;;;;;;;11.85;53.58;100112.56;5055496;28;20439;-61
2021/01/21 10:02:25;;;;;;;10.50;4.55;;;;;;;11.87;52.36;100129.84;5055373;28;20017;-61
2021/01/21 10:04:50;;;;;;;5.43;3.25;;;;;;;11.89;52.59;100125.38;5055532;28;20404;-61
2021/01/21 10:07:16;;;;;;;7.53;3.90;;;;;;;11.93;52.77;100133.78;5055442;28;20032;-61
2021/01/21 10:09:42;;;;;;;9.10;4.10;;;;;;;11.89;52.86;100125.38;5055656;28;20025;-61
2021/01/21 10:12:08;;;;;;;6.68;3.20;;;;;;;11.96;52.58;100133.75;5055412;28;20029;-60
2021/01/21 10:14:34;;;;;;;6.93;3.40;;;;;;;12.00;51.93;100120.41;5055152;28;20013;-61
2021/01/21 10:17:02;;;;;;;10.13;3.70;;;;;;;12.06;52.36;100112.34;5055169;28;20419;-61
2021/01/21 10:19:27;;;;;;;10.20;4.03;;;;;;;12.10;52.79;100110.28;5054833;28;20028;-61
2021/01/21 10:21:52;;;;;;;7.65;3.65;;;;;;;12.13;52.96;100115.06;5055363;28;20348;-61
2021/01/21 10:24:18;;;;;;;10.63;3.67;;;;;;;12.19;53.15;100104.91;5055162;28;20332;-61
2021/01/21 10:26:43;;;;;;;8.55;3.42;;;;;;;12.29;53.33;100103.97;5055376;28;20028;-61
2021/01/21 10:29:09;;;;;;;7.30;2.90;;;;;;;12.41;52.47;100107.47;5055126;28;20048;-61
2021/01/21 10:31:35;;;;;;;7.70;3.10;;;;;;;12.56;52.20;100106.06;5054962;28;20028;-61
2021/01/21 10:34:02;;;;;;;4.78;2.40;;;;;;;12.59;51.88;100102.38;5055168;28;20670;-61
2021/01/21 10:36:27;;;;;;;7.53;2.70;;;;;;;12.62;51.05;100091.09;5055258;28;20404;-61
2021/01/21 10:38:52;;;;;;;10.07;2.67;;;;;;;12.68;51.39;100094.22;5055241;28;20033;-61
2021/01/21 10:41:18;;;;;;;2.97;2.00;;;;;;;12.69;51.89;100090.97;5055168;28;20352;-61
2021/01/21 10:43:43;;;;;;;6.88;2.40;;;;;;;12.69;51.32;100088.16;5054811;28;20128;-62
2021/01/21 10:46:08;;;;;;;42.58;4.30;;;;;;;12.72;51.02;100088.53;5054792;28;20025;-61
2021/01/21 10:48:34;;;;;;;6.07;2.13;;;;;;;12.66;51.16;100086.19;5055103;28;20048;-61
2021/01/21 10:50:59;;;;;;;10.80;2.65;;;;;;;12.73;51.80;100079.66;5055115;28;20116;-61
2021/01/21 10:53:25;;;;;;;8.52;2.35;;;;;;;12.79;50.23;100082.78;5055040;28;20032;-60
2021/01/21 10:55:50;;;;;;;10.07;2.55;;;;;;;12.83;50.27;100069.41;5054965;28;20055;-61
2021/01/21 10:58:16;;;;;;;5.32;2.17;;;;;;;12.80;50.37;100073.91;5054879;28;20032;-61
2021/01/21 11:00:43;;;;;;;9.07;2.30;;;;;;;12.89;50.65;100091.09;5054796;28;20021;-62
2021/01/21 11:03:09;;;;;;;11.90;2.50;;;;;;;12.90;51.15;100074.97;5054981;28;20108;-61
2021/01/21 11:05:34;;;;;;;3.78;2.22;;;;;;;12.89;51.16;100059.28;5055022;28;20100;-61
2021/01/21 11:07:59;;;;;;;6.97;2.40;;;;;;;12.98;51.02;100074.44;5055231;28;20048;-61
2021/01/21 11:10:25;;;;;;;7.25;2.38;;;;;;;13.11;49.24;100057.69;5054827;28;20692;-61
2021/01/21 11:12:51;;;;;;;7.97;2.63;;;;;;;13.12;49.53;100050.81;5054899;28;20114;-62
2021/01/21 11:15:17;;;;;;;5.30;3.03;;;;;;;13.20;49.96;100048.72;5054725;28;20328;-62
2021/01/21 11:17:47;;;;;;;5.38;3.10;;;;;;;13.25;50.91;100054.66;5053689;28;20025;-61
2021/01/21 11:20:13;;;;;;;5.20;3.17;;;;;;;13.25;49.36;100046.22;5055126;28;20319;-62
2021/01/21 11:22:39;;;;;;;3.50;2.60;;;;;;;13.33;50.17;100048.91;5054678;28;20025;-64
2021/01/21 11:25:07;;;;;;;12.02;2.80;;;;;;;13.22;50.15;100049.88;5054626;28;20052;-62
2021/01/21 11:27:34;;;;;;;6.35;2.00;;;;;;;13.25;49.16;100040.56;5054513;28;20070;-62
2021/01/21 11:29:59;;;;;;;5.72;2.22;;;;;;;13.23;50.05;100043.00;5054616;28;20033;-63